KRNH

Details ICAO KRNH
Name NEW RICHMOND RGNL
Region United States
Timezone America/Chicago (UTC-5.0)
Plans Departing 1
Arriving 5
Stats Elevation 996 ft / 304 m (AMSL)
Location 45.145180° -92.537672°
Runways 2
Magnetic Variation 0.438° W
Sunrise 2018-05-24 10:33:10 UTC / 2018-05-24 05:33:10 Local
Sunset 2018-05-25 01:43:43 UTC / 2018-05-24 20:43:43 Local
Advertisement - Login to hide

Runways

ID Width Length Bearing (true) Bearing (mag) Surface Threshold Offset Overrun Length
04 75 ft / 23 m 2,137 ft / 651 m 44.65° 45.09° Grass 0 ft / 0 m 0 ft / 0 m
14 75 ft / 23 m 4,002 ft / 1,220 m 143.15° 143.59° Asphalt 0 ft / 0 m 0 ft / 0 m
22 75 ft / 23 m 2,137 ft / 651 m 224.65° 225.09° Grass 0 ft / 0 m 0 ft / 0 m
32 75 ft / 23 m 4,002 ft / 1,220 m 323.15° 323.59° Asphalt 0 ft / 0 m 0 ft / 0 m

Map

Weather


0- 5 10 15 20 25 30 35+ Temperature / ° C

Clouds and Precipitation
Forecast for 2018-05-24 12:00 UTC. Updated 2 hours ago

Ground ~20,000 ft ~40,000 ft Winds

METAR

KRNH 241335Z AUTO 20011G17KT 10SM SCT065 SCT075 24/17 A3006 RMK AO2 T02360166

TAF

TAF KRNH 241120Z 2412/2512 16008KT P6SM SCT090 BKN200 FM241700 18012G20KT P6SM SCT060 SCT150 FM250000 18008KT P6SM SCT060 SCT150 PROB30 2500/2506 -TSRA BKN060CB FM250600 19007KT P6SM BKN100

Frequencies

Recorded 120.00 MHz AWOS 3
Approach 121.20 MHz MINNEAPOLIS APP/DEP
Unicom 122.97 MHz CTAF/UNICOM
Warning: Do not use this data for real-world aviation or navigation. No guarantee of current accuracy is given.